createdAt,value
2022-10-08T00:00:10.378Z,98720.25
2022-10-08T00:02:40.875Z,98719.41
2022-10-08T00:05:10.963Z,98716.72
2022-10-08T00:07:42.128Z,98723.97
2022-10-08T00:10:10.859Z,98719.41
2022-10-08T00:12:39.465Z,98716.72
2022-10-08T00:15:09.695Z,98716.72
2022-10-08T00:17:38.217Z,98722.94
2022-10-08T00:20:10.794Z,98713.19
2022-10-08T00:22:39.234Z,98713.19
2022-10-08T00:25:10.349Z,98715.69
2022-10-08T00:27:39.109Z,98706.97
2022-10-08T00:30:09.574Z,98696.22
2022-10-08T00:32:38.338Z,98697.88
2022-10-08T00:35:09.454Z,98706.78
2022-10-08T00:37:37.962Z,98697.88
2022-10-08T00:40:07.641Z,98699.75
2022-10-08T00:42:36.285Z,98699.75
2022-10-08T00:45:06.418Z,98689.16
2022-10-08T00:47:40.707Z,98686.28
2022-10-08T00:50:16.030Z,98687.31
2022-10-08T00:52:48.583Z,98676.56
2022-10-08T00:55:20.226Z,98673.88
2022-10-08T00:57:48.734Z,98673.00
2022-10-08T01:00:19.448Z,98672.84
2022-10-08T01:02:48.426Z,98670.16
2022-10-08T01:05:20.734Z,98665.78
2022-10-08T01:07:52.359Z,98666.63
2022-10-08T01:10:28.675Z,98664.94
2022-10-08T01:13:07.570Z,98659.53
2022-10-08T01:15:40.709Z,98661.41
2022-10-08T01:18:13.588Z,98657.72
2022-10-08T01:20:53.557Z,98653.34
2022-10-08T01:23:56.947Z,98653.19
2022-10-08T01:26:46.827Z,98645.25
2022-10-08T01:29:19.733Z,98652.34
2022-10-08T01:31:49.950Z,98645.25
2022-10-08T01:34:21.746Z,98649.66
2022-10-08T01:36:51.901Z,98646.09
2022-10-08T01:39:22.425Z,98636.31
2022-10-08T01:41:53.422Z,98641.56
2022-10-08T01:44:26.118Z,98639.88
2022-10-08T01:46:55.115Z,98639.88
2022-10-08T01:49:24.238Z,98638.88
2022-10-08T01:51:54.415Z,98635.34
2022-10-08T01:54:23.118Z,98633.50
2022-10-08T01:56:51.571Z,98637.19
2022-10-08T01:59:23.837Z,98646.25
2022-10-08T02:01:57.567Z,98645.25
2022-10-08T02:04:35.958Z,98642.72
2022-10-08T02:07:08.346Z,98639.03
2022-10-08T02:09:38.667Z,98639.03
2022-10-08T02:12:07.397Z,98644.41
2022-10-08T02:14:39.116Z,98644.41
2022-10-08T02:17:19.958Z,98637.19
2022-10-08T02:19:53.832Z,98633.63
2022-10-08T02:22:26.056Z,98638.19
2022-10-08T02:24:58.031Z,98642.56
2022-10-08T02:27:30.400Z,98627.44
2022-10-08T02:30:06.674Z,98631.97
2022-10-08T02:32:37.291Z,98637.34
2022-10-08T02:35:12.295Z,98628.25
2022-10-08T02:37:44.278Z,98630.13
2022-10-08T02:40:14.510Z,98626.59
2022-10-08T02:42:45.918Z,98627.44
2022-10-08T02:45:18.304Z,98622.03
2022-10-08T02:47:47.203Z,98615.81
2022-10-08T02:50:19.412Z,98626.59
2022-10-08T02:52:48.272Z,98627.44
2022-10-08T02:55:24.967Z,98622.03
2022-10-08T02:57:58.822Z,98627.44
2022-10-08T03:00:33.113Z,98630.13
2022-10-08T03:03:06.744Z,98632.81
2022-10-08T03:05:35.462Z,98625.72
2022-10-08T03:08:04.699Z,98625.72
2022-10-08T03:10:34.612Z,98619.34
2022-10-08T03:13:03.590Z,98637.34
2022-10-08T03:15:34.166Z,98637.34
2022-10-08T03:18:03.632Z,98628.41
2022-10-08T03:20:32.278Z,98628.41
2022-10-08T03:23:01.864Z,98625.72
2022-10-08T03:25:30.323Z,98628.41
2022-10-08T03:27:58.856Z,98636.50
2022-10-08T03:30:27.438Z,98633.78
2022-10-08T03:32:57.366Z,98628.41
2022-10-08T03:35:25.935Z,98628.41
2022-10-08T03:37:54.812Z,98630.28
2022-10-08T03:40:23.337Z,98631.09
2022-10-08T03:42:52.702Z,98630.28
2022-10-08T03:45:21.165Z,98616.81
2022-10-08T03:47:52.759Z,98630.28
2022-10-08T03:50:22.992Z,98624.91
2022-10-08T03:52:51.632Z,98618.69
2022-10-08T03:55:20.166Z,98614.97
2022-10-08T03:57:48.816Z,98622.19
2022-10-08T04:00:17.956Z,98613.31
2022-10-08T04:02:51.356Z,98607.91
2022-10-08T04:05:20.097Z,98609.78
2022-10-08T04:07:50.187Z,98608.94
2022-10-08T04:10:18.661Z,98606.25
2022-10-08T04:12:47.403Z,98604.41
2022-10-08T04:15:16.169Z,98606.25
2022-10-08T04:17:44.751Z,98599.00
2022-10-08T04:20:13.208Z,98596.31
2022-10-08T04:22:41.827Z,98604.41
2022-10-08T04:25:11.698Z,98592.81
2022-10-08T04:27:40.273Z,98591.78
2022-10-08T04:30:10.400Z,98595.50
2022-10-08T04:32:39.002Z,98599.00
2022-10-08T04:35:08.729Z,98591.78
2022-10-08T04:37:37.770Z,98605.22
2022-10-08T04:40:07.344Z,98597.16
2022-10-08T04:42:37.439Z,98591.94
2022-10-08T04:45:06.778Z,98590.94
2022-10-08T04:47:35.520Z,98590.13
2022-10-08T04:50:04.120Z,98595.50
2022-10-08T04:52:33.294Z,98598.19
2022-10-08T04:55:01.790Z,98597.31
2022-10-08T04:57:30.484Z,98595.50
2022-10-08T05:00:17.711Z,98592.81
2022-10-08T05:02:47.459Z,98594.63
2022-10-08T05:05:16.459Z,98583.88
2022-10-08T05:07:45.248Z,98588.41
2022-10-08T05:10:13.791Z,98594.63
2022-10-08T05:12:42.289Z,98590.13
2022-10-08T05:15:12.820Z,98592.81
2022-10-08T05:17:41.354Z,98591.09
2022-10-08T05:20:10.494Z,98594.63
2022-10-08T05:22:39.030Z,98593.78
2022-10-08T05:25:09.037Z,98592.81
2022-10-08T05:27:37.555Z,98596.31
2022-10-08T05:30:07.972Z,98595.50
2022-10-08T05:32:37.769Z,98599.84
2022-10-08T05:35:07.558Z,98599.84
2022-10-08T05:37:36.047Z,98613.13
2022-10-08T05:40:04.726Z,98604.19
2022-10-08T05:42:33.234Z,98611.28
2022-10-08T05:45:01.795Z,98615.81
2022-10-08T05:47:30.307Z,98619.34
2022-10-08T05:50:00.209Z,98626.44
2022-10-08T05:52:28.752Z,98620.19
2022-10-08T05:54:57.168Z,98616.66
2022-10-08T05:57:25.799Z,98622.41
2022-10-08T05:59:54.318Z,98621.88
2022-10-08T06:02:23.295Z,98620.06
2022-10-08T06:04:51.875Z,98621.72
2022-10-08T06:07:21.948Z,98618.00
2022-10-08T06:09:52.242Z,98624.41
2022-10-08T06:12:20.822Z,98615.50
2022-10-08T06:14:49.288Z,98628.75
2022-10-08T06:17:17.958Z,98621.72
2022-10-08T06:19:46.383Z,98618.19
2022-10-08T06:22:14.966Z,98617.16
2022-10-08T06:24:44.774Z,98613.47
2022-10-08T06:27:13.471Z,98617.16
2022-10-08T06:29:41.916Z,98621.72
2022-10-08T06:32:13.312Z,98617.00
2022-10-08T06:34:42.608Z,98620.69
2022-10-08T06:37:11.450Z,98621.38
2022-10-08T06:39:41.273Z,98619.34
2022-10-08T06:42:13.754Z,98623.91
2022-10-08T06:44:42.297Z,98627.41
2022-10-08T06:47:10.844Z,98628.25
2022-10-08T06:49:39.872Z,98630.13
2022-10-08T06:52:08.439Z,98635.50
2022-10-08T06:54:36.945Z,98632.59
2022-10-08T06:57:05.484Z,98627.22
2022-10-08T06:59:35.480Z,98637.16
2022-10-08T07:02:04.095Z,98629.91
2022-10-08T07:04:32.684Z,98631.78
2022-10-08T07:07:01.142Z,98627.75
2022-10-08T07:09:29.701Z,98632.28
2022-10-08T07:11:58.165Z,98631.06
2022-10-08T07:14:26.766Z,98636.44
2022-10-08T07:16:56.640Z,98628.22
2022-10-08T07:19:25.565Z,98625.69
2022-10-08T07:21:56.820Z,98621.34
2022-10-08T07:24:29.100Z,98620.50
2022-10-08T07:26:58.007Z,98616.16
2022-10-08T07:29:26.532Z,98615.94
2022-10-08T07:31:56.594Z,98615.94
2022-10-08T07:34:25.108Z,98615.78
2022-10-08T07:36:53.670Z,98622.00
2022-10-08T07:39:22.614Z,98619.31
2022-10-08T07:41:51.263Z,98622.69
2022-10-08T07:44:19.883Z,98612.91
2022-10-08T07:46:49.307Z,98614.25
2022-10-08T07:49:19.580Z,98615.25
2022-10-08T07:51:48.277Z,98608.88
2022-10-08T07:54:17.950Z,98613.41
2022-10-08T07:56:46.435Z,98616.94
2022-10-08T07:59:16.122Z,98619.94
2022-10-08T08:01:45.102Z,98621.97
2022-10-08T08:04:14.698Z,98619.28
2022-10-08T08:06:47.591Z,98623.31
2022-10-08T08:09:16.299Z,98624.81
2022-10-08T08:11:46.103Z,98627.16
2022-10-08T08:14:14.588Z,98624.19
2022-10-08T08:16:43.384Z,98622.47
2022-10-08T08:19:11.877Z,98622.13
2022-10-08T08:21:40.563Z,98615.25
2022-10-08T08:24:12.322Z,98619.78
2022-10-08T08:26:42.710Z,98608.34
2022-10-08T08:29:12.752Z,98615.59
2022-10-08T08:31:43.554Z,98612.91
2022-10-08T08:34:13.600Z,98619.31
2022-10-08T08:36:43.392Z,98609.38
2022-10-08T08:39:17.418Z,98606.69
2022-10-08T08:42:09.814Z,98603.84
2022-10-08T08:44:40.019Z,98596.25
2022-10-08T08:47:14.154Z,98597.91
2022-10-08T08:49:43.837Z,98594.38
2022-10-08T08:52:15.374Z,98606.84
2022-10-08T08:54:46.912Z,98601.47
2022-10-08T08:57:30.957Z,98612.22
2022-10-08T09:00:04.282Z,98610.38
2022-10-08T09:02:35.777Z,98613.06
2022-10-08T09:05:07.350Z,98603.28
2022-10-08T09:07:43.199Z,98606.84
2022-10-08T09:10:18.131Z,98604.16
2022-10-08T09:12:47.210Z,98613.06
2022-10-08T09:15:19.956Z,98604.16
2022-10-08T09:17:51.741Z,98613.88
2022-10-08T09:20:22.533Z,98606.84
2022-10-08T09:22:51.673Z,98595.22
2022-10-08T09:25:23.409Z,98600.44
2022-10-08T09:27:53.621Z,98609.53
2022-10-08T09:30:37.298Z,98607.00
2022-10-08T09:33:26.322Z,98610.53
2022-10-08T09:35:55.160Z,98615.25
2022-10-08T09:38:25.338Z,98614.59
2022-10-08T09:41:06.766Z,98605.84
2022-10-08T09:43:35.977Z,98614.09
2022-10-08T09:46:11.794Z,98614.28
2022-10-08T09:48:41.839Z,98611.41
2022-10-08T09:51:15.372Z,98614.91
2022-10-08T09:53:46.211Z,98613.09
2022-10-08T09:56:16.178Z,98614.09
2022-10-08T09:58:52.744Z,98613.25
2022-10-08T10:01:21.391Z,98603.66
2022-10-08T10:03:51.309Z,98602.44
2022-10-08T10:06:33.228Z,98605.97
2022-10-08T10:09:04.415Z,98600.44
2022-10-08T10:11:42.132Z,98602.28
2022-10-08T10:14:21.564Z,98604.16
2022-10-08T10:16:54.036Z,98599.59
2022-10-08T10:19:24.664Z,98592.34
2022-10-08T10:21:56.230Z,98594.03
2022-10-08T10:24:41.978Z,98588.63
2022-10-08T10:27:14.865Z,98587.63
2022-10-08T10:29:54.059Z,98595.72
2022-10-08T10:32:25.912Z,98580.75
2022-10-08T10:35:05.016Z,98586.97
2022-10-08T10:37:39.960Z,98576.00
2022-10-08T10:40:37.246Z,98574.19
2022-10-08T10:43:22.383Z,98567.78
2022-10-08T10:45:55.157Z,98567.63
2022-10-08T10:48:23.704Z,98563.88
2022-10-08T10:51:22.057Z,98560.84
2022-10-08T10:53:58.410Z,98544.03
2022-10-08T10:56:26.877Z,98544.88
2022-10-08T10:59:18.823Z,98552.97
2022-10-08T11:01:50.900Z,98549.25
2022-10-08T11:04:23.706Z,98544.16
2022-10-08T11:07:02.897Z,98532.56
2022-10-08T11:09:40.995Z,98536.25
2022-10-08T11:12:25.892Z,98537.75
2022-10-08T11:15:02.878Z,98529.69
2022-10-08T11:17:44.930Z,98536.56
2022-10-08T11:20:39.720Z,98529.50
2022-10-08T11:23:21.551Z,98523.09
2022-10-08T11:26:17.836Z,98523.94
2022-10-08T11:28:50.440Z,98526.81
2022-10-08T11:31:28.229Z,98522.09
2022-10-08T11:33:57.872Z,98514.84
2022-10-08T11:36:33.028Z,98514.84
2022-10-08T11:39:07.754Z,98517.84
2022-10-08T11:41:41.393Z,98508.28
2022-10-08T11:44:12.245Z,98512.81
2022-10-08T11:46:42.262Z,98501.19
2022-10-08T11:49:44.561Z,98491.09
2022-10-08T11:52:15.936Z,98506.59
2022-10-08T11:54:51.663Z,98488.31
2022-10-08T11:57:24.875Z,98492.66
2022-10-08T11:59:57.730Z,98487.28
2022-10-08T12:02:30.774Z,98488.31
2022-10-08T12:05:00.511Z,98486.44
2022-10-08T12:07:32.833Z,98484.56
2022-10-08T12:10:33.338Z,98481.22
2022-10-08T12:13:25.656Z,98476.66
2022-10-08T12:16:06.798Z,98468.78
2022-10-08T12:18:54.761Z,98476.88
2022-10-08T12:21:53.278Z,98476.03
2022-10-08T12:25:00.410Z,98468.97
2022-10-08T12:27:34.671Z,98463.41
2022-10-08T12:30:06.808Z,98464.41
2022-10-08T12:32:56.553Z,98468.13
2022-10-08T12:35:29.702Z,98465.44
2022-10-08T12:38:24.067Z,98467.28
2022-10-08T12:40:59.863Z,98469.97
2022-10-08T12:43:35.897Z,98469.16
2022-10-08T12:46:12.253Z,98476.19
2022-10-08T12:48:44.016Z,98469.16
2022-10-08T12:51:22.903Z,98469.97
2022-10-08T12:53:51.523Z,98464.59
2022-10-08T12:56:23.335Z,98470.81
2022-10-08T12:58:51.974Z,98470.81
2022-10-08T13:01:20.573Z,98473.50
2022-10-08T13:03:49.672Z,98467.28
2022-10-08T13:06:31.778Z,98468.97
2022-10-08T13:09:02.459Z,98473.50
2022-10-08T13:11:31.101Z,98473.50
2022-10-08T13:13:59.725Z,98471.66
2022-10-08T13:16:28.935Z,98465.44
2022-10-08T13:18:58.723Z,98472.47
2022-10-08T13:21:38.809Z,98465.44
2022-10-08T13:24:40.822Z,98476.19
2022-10-08T13:27:24.182Z,98477.03
2022-10-08T13:29:52.950Z,98471.84
2022-10-08T13:32:23.314Z,98469.97
2022-10-08T13:34:53.058Z,98470.81
2022-10-08T13:37:32.339Z,98468.13
2022-10-08T13:40:01.988Z,98470.81
2022-10-08T13:42:31.989Z,98460.06
2022-10-08T13:45:01.255Z,98468.13
2022-10-08T13:47:29.945Z,98465.44
2022-10-08T13:50:02.250Z,98473.50
2022-10-08T13:52:33.651Z,98470.81
2022-10-08T13:55:04.522Z,98461.09
2022-10-08T13:57:33.177Z,98464.59
2022-10-08T14:00:01.849Z,98463.78
2022-10-08T14:02:30.358Z,98469.97
2022-10-08T14:04:59.041Z,98467.28
2022-10-08T14:07:29.014Z,98469.16
2022-10-08T14:09:59.126Z,98478.22
2022-10-08T14:12:30.089Z,98470.16
2022-10-08T14:14:58.725Z,98474.53
2022-10-08T14:17:27.307Z,98471.84
2022-10-08T14:19:56.512Z,98465.63
2022-10-08T14:22:25.131Z,98473.72
2022-10-08T14:24:54.087Z,98467.47
2022-10-08T14:27:24.145Z,98472.84
2022-10-08T14:29:52.773Z,98470.16
2022-10-08T14:32:21.314Z,98465.63
2022-10-08T14:34:49.818Z,98467.47
2022-10-08T14:37:18.570Z,98457.56
2022-10-08T14:39:47.446Z,98454.00
2022-10-08T14:42:15.995Z,98446.78
2022-10-08T14:44:47.577Z,98450.47
2022-10-08T14:47:16.592Z,98457.56
2022-10-08T14:49:45.207Z,98454.00
2022-10-08T14:52:13.870Z,98450.47
2022-10-08T14:54:42.589Z,98455.03
2022-10-08T14:57:11.368Z,98455.03
2022-10-08T14:59:41.221Z,98455.03
2022-10-08T15:02:12.269Z,98460.41
2022-10-08T15:04:40.812Z,98456.91
2022-10-08T15:07:09.506Z,98464.78
2022-10-08T15:09:40.649Z,98465.81
2022-10-08T15:12:09.205Z,98460.41
2022-10-08T15:14:38.518Z,98470.34
2022-10-08T15:17:07.396Z,98456.06
2022-10-08T15:19:37.228Z,98458.75
2022-10-08T15:22:05.715Z,98464.13
2022-10-08T15:24:34.367Z,98463.28
2022-10-08T15:27:03.078Z,98461.44
2022-10-08T15:29:31.675Z,98476.72
2022-10-08T15:32:00.369Z,98466.81
2022-10-08T15:34:28.952Z,98468.66
2022-10-08T15:36:58.964Z,98468.66
2022-10-08T15:39:29.342Z,98473.03
2022-10-08T15:42:00.774Z,98473.22
2022-10-08T15:44:30.460Z,98462.44
2022-10-08T15:47:01.599Z,98475.91
2022-10-08T15:49:33.548Z,98474.03
2022-10-08T15:52:03.695Z,98463.28
2022-10-08T15:54:32.305Z,98472.38
2022-10-08T15:57:00.862Z,98468.84
2022-10-08T15:59:29.532Z,98468.50
2022-10-08T16:01:58.087Z,98467.47
2022-10-08T16:04:26.687Z,98466.25
2022-10-08T16:06:55.538Z,98478.91
2022-10-08T16:09:25.524Z,98472.47
2022-10-08T16:11:54.102Z,98479.09
2022-10-08T16:14:23.883Z,98478.22
2022-10-08T16:16:52.501Z,98487.16
2022-10-08T16:19:22.608Z,98472.84
2022-10-08T16:21:52.448Z,98490.50
2022-10-08T16:24:21.069Z,98495.25
2022-10-08T16:26:50.915Z,98507.31
2022-10-08T16:29:19.633Z,98504.09
2022-10-08T16:31:48.634Z,98500.56
2022-10-08T16:34:18.595Z,98504.44
2022-10-08T16:36:48.356Z,98510.47
2022-10-08T16:39:19.249Z,98507.97
2022-10-08T16:41:48.297Z,98517.34
2022-10-08T16:44:20.502Z,98520.59
2022-10-08T16:46:51.018Z,98526.50
2022-10-08T16:49:25.473Z,98528.75
2022-10-08T16:51:55.001Z,98531.59
2022-10-08T16:54:23.450Z,98533.25
2022-10-08T16:56:51.920Z,98541.84
2022-10-08T16:59:23.122Z,98529.94
2022-10-08T17:01:53.825Z,98537.13
2022-10-08T17:04:23.606Z,98542.00
2022-10-08T17:06:52.590Z,98537.81
2022-10-08T17:09:21.531Z,98541.53
2022-10-08T17:11:50.233Z,98544.88
2022-10-08T17:14:18.682Z,98562.22
2022-10-08T17:16:49.803Z,98555.00
2022-10-08T17:19:18.335Z,98553.97
2022-10-08T17:21:46.796Z,98554.63
2022-10-08T17:24:15.313Z,98551.25
2022-10-08T17:26:51.671Z,98558.16
2022-10-08T17:29:20.498Z,98567.72
2022-10-08T17:31:50.334Z,98562.19
2022-10-08T17:34:18.833Z,98561.97
2022-10-08T17:36:47.875Z,98561.31
2022-10-08T17:39:16.358Z,98571.81
2022-10-08T17:41:44.953Z,98580.41
2022-10-08T17:44:14.839Z,98570.47
2022-10-08T17:46:45.929Z,98579.81
2022-10-08T17:49:16.540Z,98571.75
2022-10-08T17:51:45.043Z,98583.00
2022-10-08T17:54:15.135Z,98581.03
2022-10-08T17:56:43.735Z,98589.03
2022-10-08T17:59:14.298Z,98581.03
2022-10-08T18:01:45.247Z,98581.84
2022-10-08T18:04:17.381Z,98585.72
2022-10-08T18:06:47.141Z,98600.03
2022-10-08T18:09:17.031Z,98593.66
2022-10-08T18:11:47.543Z,98589.25
2022-10-08T18:14:17.240Z,98590.28
2022-10-08T18:16:48.498Z,98598.22
2022-10-08T18:19:18.831Z,98590.69
2022-10-08T18:21:47.484Z,98594.34
2022-10-08T18:24:16.026Z,98602.94
2022-10-08T18:26:44.671Z,98608.47
2022-10-08T18:29:14.736Z,98609.75
2022-10-08T18:31:44.162Z,98607.78
2022-10-08T18:34:14.512Z,98610.31
2022-10-08T18:36:44.380Z,98613.16
2022-10-08T18:39:14.455Z,98609.50
2022-10-08T18:41:44.173Z,98614.31
2022-10-08T18:44:14.674Z,98613.53
2022-10-08T18:46:44.652Z,98616.94
2022-10-08T18:49:14.527Z,98617.78
2022-10-08T18:51:44.505Z,98616.09
2022-10-08T18:54:13.284Z,98618.94
2022-10-08T18:56:41.862Z,98621.66
2022-10-08T18:59:12.667Z,98630.06
2022-10-08T19:01:42.816Z,98631.69
2022-10-08T19:04:14.013Z,98637.03
2022-10-08T19:06:44.687Z,98636.72
2022-10-08T19:09:13.212Z,98638.44
2022-10-08T19:11:45.038Z,98636.44
2022-10-08T19:14:15.498Z,98642.97
2022-10-08T19:16:44.083Z,98645.00
2022-10-08T19:19:15.195Z,98649.72
2022-10-08T19:21:45.282Z,98647.50
2022-10-08T19:24:15.173Z,98654.06
2022-10-08T19:26:43.814Z,98658.63
2022-10-08T19:29:16.226Z,98659.81
2022-10-08T19:31:47.366Z,98673.94
2022-10-08T19:34:16.732Z,98668.75
2022-10-08T19:36:46.719Z,98672.25
2022-10-08T19:39:16.572Z,98680.34
2022-10-08T19:41:45.257Z,98673.25
2022-10-08T19:44:14.479Z,98679.50
2022-10-08T19:46:43.109Z,98685.72
2022-10-08T19:49:12.149Z,98686.72
2022-10-08T19:51:40.734Z,98690.28
2022-10-08T19:54:10.745Z,98686.72
2022-10-08T19:56:39.359Z,98694.78
2022-10-08T19:59:07.982Z,98693.97
2022-10-08T20:01:39.195Z,98698.50
2022-10-08T20:04:08.412Z,98702.03
2022-10-08T20:06:39.377Z,98712.81
2022-10-08T20:09:10.267Z,98708.25
2022-10-08T20:11:40.435Z,98705.56
2022-10-08T20:14:09.014Z,98711.81
2022-10-08T20:16:39.185Z,98718.84
2022-10-08T20:19:09.558Z,98715.34
2022-10-08T20:21:38.730Z,98715.34
2022-10-08T20:24:07.570Z,98712.63
2022-10-08T20:26:37.116Z,98716.16
2022-10-08T20:29:08.443Z,98711.63
2022-10-08T20:31:38.198Z,98721.53
2022-10-08T20:34:08.267Z,98721.53
2022-10-08T20:36:36.840Z,98721.53
2022-10-08T20:39:05.564Z,98721.53
2022-10-08T20:41:34.197Z,98726.09
2022-10-08T20:44:03.257Z,98729.44
2022-10-08T20:46:33.366Z,98733.63
2022-10-08T20:49:01.911Z,98739.19
2022-10-08T20:51:30.608Z,98735.69
2022-10-08T20:54:00.646Z,98742.06
2022-10-08T20:56:29.568Z,98750.13
2022-10-08T20:58:58.107Z,98743.91
2022-10-08T21:01:27.851Z,98748.47
2022-10-08T21:03:57.710Z,98760.91
2022-10-08T21:06:27.801Z,98756.34
2022-10-08T21:08:57.812Z,98752.19
2022-10-08T21:11:28.033Z,98745.78
2022-10-08T21:13:59.568Z,98747.44
2022-10-08T21:16:29.495Z,98753.84
2022-10-08T21:19:01.239Z,98758.38
2022-10-08T21:21:30.540Z,98762.94
2022-10-08T21:23:59.340Z,98768.31
2022-10-08T21:26:29.621Z,98762.94
2022-10-08T21:28:59.328Z,98763.09
2022-10-08T21:31:29.136Z,98767.66
2022-10-08T21:33:59.127Z,98783.44
2022-10-08T21:36:29.479Z,98784.47
2022-10-08T21:38:58.877Z,98791.88
2022-10-08T21:41:29.728Z,98785.66
2022-10-08T21:43:59.884Z,98783.13
2022-10-08T21:46:31.277Z,98784.97
2022-10-08T21:49:02.233Z,98792.22
2022-10-08T21:51:31.210Z,98801.13
2022-10-08T21:54:01.136Z,98799.28
2022-10-08T21:56:31.213Z,98797.59
2022-10-08T21:59:01.027Z,98804.81
2022-10-08T22:01:31.251Z,98819.13
2022-10-08T22:04:02.516Z,98809.34
2022-10-08T22:06:33.177Z,98796.94
2022-10-08T22:09:01.825Z,98813.06
2022-10-08T22:11:30.352Z,98812.06
2022-10-08T22:13:58.857Z,98818.28
2022-10-08T22:16:29.568Z,98822.81
2022-10-08T22:18:58.495Z,98823.84
2022-10-08T22:21:28.584Z,98832.75
2022-10-08T22:23:57.127Z,98824.84
2022-10-08T22:26:28.270Z,98826.53
2022-10-08T22:28:57.174Z,98824.84
2022-10-08T22:31:25.942Z,98823.16
2022-10-08T22:33:54.727Z,98824.00
2022-10-08T22:36:24.789Z,98826.88
2022-10-08T22:38:54.928Z,98837.63
2022-10-08T22:41:24.784Z,98838.47
2022-10-08T22:43:53.639Z,98846.69
2022-10-08T22:46:23.680Z,98849.41
2022-10-08T22:48:52.215Z,98852.09
2022-10-08T22:51:21.634Z,98852.09
2022-10-08T22:53:50.530Z,98848.41
2022-10-08T22:56:22.016Z,98847.56
2022-10-08T22:58:50.617Z,98845.88
2022-10-08T23:01:20.945Z,98846.69
2022-10-08T23:03:49.631Z,98842.34
2022-10-08T23:06:19.257Z,98845.03
2022-10-08T23:08:49.500Z,98845.88
2022-10-08T23:11:19.373Z,98845.88
2022-10-08T23:13:51.804Z,98856.63
2022-10-08T23:16:20.575Z,98855.78
2022-10-08T23:18:54.697Z,98863.88
2022-10-08T23:21:23.326Z,98871.94
2022-10-08T23:23:52.114Z,98876.50
2022-10-08T23:26:22.383Z,98878.16
2022-10-08T23:28:51.597Z,98885.56
2022-10-08T23:31:21.554Z,98893.47
2022-10-08T23:33:51.164Z,98882.72
2022-10-08T23:36:21.498Z,98888.09
2022-10-08T23:38:50.151Z,98887.25
2022-10-08T23:41:18.758Z,98889.13
2022-10-08T23:43:49.956Z,98899.88
2022-10-08T23:46:20.409Z,98896.16
2022-10-08T23:48:49.417Z,98901.53
2022-10-08T23:51:18.105Z,98908.78
2022-10-08T23:53:46.985Z,98915.00
2022-10-08T23:56:15.674Z,98910.63
2022-10-08T23:58:44.285Z,98918.72
